Time;durP1;ratioP1;P1;durP2;ratioP2;P2;SDS_P1;SDS_P2;PMS_P1;PMS_P2;Temp;Humidity;BMP_temperature;BMP_pressure;BME280_temperature;BME280_humidity;BME280_pressure;Samples;Min_cycle;Max_cycle;Signal;HPM_P1;HPM_P2
2022/11/28 00:00:35;;;;;;;6.00;5.40;;;;;;;;;;5113358;28;20204;-68
2022/11/28 00:03:02;;;;;;;8.25;5.40;;;;;;;;;;5113900;28;20538;-68
2022/11/28 00:05:29;;;;;;;6.22;5.63;;;;;;;;;;5113852;28;20195;-68
2022/11/28 00:07:56;;;;;;;6.00;5.50;;;;;;;;;;5113582;28;20192;-68
2022/11/28 00:10:25;;;;;;;35.20;21.48;;;;;;;;;;5113421;28;20224;-68
2022/11/28 00:12:52;;;;;;;9.60;7.68;;;;;;;;;;5113530;28;20200;-67
2022/11/28 00:15:19;;;;;;;6.07;5.47;;;;;;;;;;5113376;28;20207;-68
2022/11/28 00:17:46;;;;;;;5.28;4.78;;;;;;;;;;5117419;28;20211;-68
2022/11/28 00:20:14;;;;;;;6.78;4.97;;;;;;;;;;5117982;28;20203;-68
2022/11/28 00:22:41;;;;;;;6.82;5.30;;;;;;;;;;5118307;28;20189;-68
2022/11/28 00:25:08;;;;;;;6.43;5.55;;;;;;;;;;5117918;28;20203;-68
2022/11/28 00:27:37;;;;;;;8.50;5.35;;;;;;;;;;5118067;28;20204;-69
2022/11/28 00:30:04;;;;;;;6.63;5.75;;;;;;;;;;5117777;28;20776;-68
2022/11/28 00:32:32;;;;;;;6.80;6.17;;;;;;;;;;5117834;28;20196;-68
2022/11/28 00:34:59;;;;;;;9.90;7.17;;;;;;;;;;5117602;28;20446;-68
2022/11/28 00:37:26;;;;;;;5.80;5.30;;;;;;;;;;5117367;28;20446;-68
2022/11/28 00:39:53;;;;;;;5.68;5.05;;;;;;;;;;5117301;28;20445;-68
2022/11/28 00:42:21;;;;;;;6.22;5.63;;;;;;;;;;5117390;28;20223;-68
2022/11/28 00:44:49;;;;;;;9.20;6.03;;;;;;;;;;5117704;28;20238;-68
2022/11/28 00:47:17;;;;;;;9.07;5.80;;;;;;;;;;5117040;28;20650;-68
2022/11/28 00:49:44;;;;;;;6.50;5.90;;;;;;;;;;5117808;28;20822;-68
2022/11/28 00:52:11;;;;;;;6.28;5.68;;;;;;;;;;5117013;28;20212;-68
2022/11/28 00:54:38;;;;;;;6.80;6.10;;;;;;;;;;5117392;28;20665;-68
2022/11/28 00:57:06;;;;;;;7.00;6.10;;;;;;;;;;5117277;28;20193;-68
2022/11/28 00:59:33;;;;;;;6.05;5.45;;;;;;;;;;5117594;28;20446;-68
2022/11/28 01:02:01;;;;;;;6.13;5.57;;;;;;;;;;5117049;28;20193;-68
2022/11/28 01:04:28;;;;;;;7.25;5.80;;;;;;;;;;5117158;28;20775;-68
2022/11/28 01:06:57;;;;;;;6.32;5.72;;;;;;;;;;5116962;28;20189;-68
2022/11/28 01:09:24;;;;;;;6.82;6.22;;;;;;;;;;5116922;28;20208;-68
2022/11/28 01:11:53;;;;;;;5.60;5.10;;;;;;;;;;5117183;28;20193;-68
2022/11/28 01:14:20;;;;;;;6.85;6.13;;;;;;;;;;5117382;28;20934;-67
2022/11/28 01:16:48;;;;;;;7.60;6.72;;;;;;;;;;5116886;28;20189;-68
2022/11/28 01:19:16;;;;;;;6.50;5.87;;;;;;;;;;5116819;28;20199;-69
2022/11/28 01:21:43;;;;;;;9.50;6.82;;;;;;;;;;5116734;28;20936;-68
2022/11/28 01:24:11;;;;;;;7.90;7.00;;;;;;;;;;5116467;28;20206;-68
2022/11/28 01:26:38;;;;;;;9.55;6.43;;;;;;;;;;5116717;28;20215;-68
2022/11/28 01:29:05;;;;;;;7.38;6.65;;;;;;;;;;5115339;28;20193;-68
2022/11/28 01:31:33;;;;;;;6.13;5.53;;;;;;;;;;5116549;28;20200;-68
2022/11/28 01:34:00;;;;;;;7.45;6.10;;;;;;;;;;5116988;28;20188;-68
2022/11/28 01:36:29;;;;;;;8.98;6.18;;;;;;;;;;5116179;28;20239;-68
2022/11/28 01:38:56;;;;;;;6.20;5.63;;;;;;;;;;5116509;28;20215;-69
2022/11/28 01:41:25;;;;;;;10.03;7.17;;;;;;;;;;5116058;28;20668;-69
2022/11/28 01:43:59;;;;;;;6.32;5.72;;;;;;;;;;5117102;28;20447;-68
2022/11/28 01:46:26;;;;;;;7.50;6.75;;;;;;;;;;5116360;28;20275;-68
2022/11/28 01:48:54;;;;;;;7.32;5.90;;;;;;;;;;5116230;28;20294;-68
2022/11/28 01:51:21;;;;;;;7.30;6.53;;;;;;;;;;5116096;28;20212;-68
2022/11/28 01:53:50;;;;;;;6.63;6.03;;;;;;;;;;5115895;28;20189;-69
2022/11/28 01:56:18;;;;;;;7.95;5.55;;;;;;;;;;5116037;28;20259;-69
2022/11/28 01:58:48;;;;;;;10.18;6.80;;;;;;;;;;5115739;28;20192;-68
2022/11/28 02:01:16;;;;;;;9.38;6.20;;;;;;;;;;5115595;28;20199;-68
2022/11/28 02:03:44;;;;;;;8.67;5.80;;;;;;;;;;5116050;28;20560;-68
2022/11/28 02:06:12;;;;;;;10.70;6.03;;;;;;;;;;5116546;28;20481;-68
2022/11/28 02:08:39;;;;;;;6.45;5.85;;;;;;;;;;5115896;28;20192;-68
2022/11/28 02:11:16;;;;;;;6.95;6.25;;;;;;;;;;5115398;28;20228;-69
2022/11/28 02:13:47;;;;;;;6.60;5.97;;;;;;;;;;5116370;28;20185;-68
2022/11/28 02:16:26;;;;;;;8.40;6.60;;;;;;;;;;5115933;28;20193;-68
2022/11/28 02:18:58;;;;;;;9.35;6.38;;;;;;;;;;5116233;28;20188;-68
2022/11/28 02:21:45;;;;;;;8.65;6.55;;;;;;;;;;5115848;28;20181;-68
2022/11/28 02:24:25;;;;;;;7.17;6.47;;;;;;;;;;5115705;28;20367;-68
2022/11/28 02:27:10;;;;;;;8.50;6.38;;;;;;;;;;5115189;28;20430;-68
2022/11/28 02:29:50;;;;;;;12.90;7.55;;;;;;;;;;5105429;28;20664;-68
2022/11/28 02:32:23;;;;;;;8.43;6.30;;;;;;;;;;5115611;28;20183;-68
2022/11/28 02:34:55;;;;;;;7.70;6.72;;;;;;;;;;5115234;28;20190;-68
2022/11/28 02:37:25;;;;;;;7.60;6.70;;;;;;;;;;5115689;28;20189;-68
2022/11/28 02:39:55;;;;;;;7.33;6.63;;;;;;;;;;5115071;28;20560;-68
2022/11/28 02:42:24;;;;;;;8.90;7.30;;;;;;;;;;5115092;28;20474;-68
2022/11/28 02:44:56;;;;;;;8.57;7.05;;;;;;;;;;5114916;28;20445;-68
2022/11/28 02:47:26;;;;;;;7.27;6.17;;;;;;;;;;5115555;28;20285;-69
2022/11/28 02:49:56;;;;;;;7.55;6.75;;;;;;;;;;5115643;28;20467;-68
2022/11/28 02:52:26;;;;;;;8.13;7.03;;;;;;;;;;5114740;28;20204;-68
2022/11/28 02:54:55;;;;;;;7.43;6.65;;;;;;;;;;5115308;28;20553;-69
2022/11/28 02:57:22;;;;;;;11.05;7.20;;;;;;;;;;5115082;27;20197;-68
2022/11/28 02:59:50;;;;;;;8.95;7.30;;;;;;;;;;5115454;28;20197;-68
2022/11/28 03:02:20;;;;;;;6.75;6.15;;;;;;;;;;5114815;28;20196;-68
2022/11/28 03:04:54;;;;;;;11.30;7.32;;;;;;;;;;5115022;28;20203;-68
2022/11/28 03:07:29;;;;;;;8.05;7.20;;;;;;;;;;5114675;28;20544;-68
2022/11/28 03:10:20;;;;;;;10.40;8.50;;;;;;;;;;5114754;28;20208;-68
2022/11/28 03:12:51;;;;;;;7.97;6.47;;;;;;;;;;5099358;28;20189;-68
2022/11/28 03:15:20;;;;;;;7.18;6.47;;;;;;;;;;5115500;28;20181;-68
2022/11/28 03:17:52;;;;;;;8.13;7.33;;;;;;;;;;5114206;28;20713;-68
2022/11/28 03:20:24;;;;;;;7.53;6.82;;;;;;;;;;5114303;28;20435;-68
2022/11/28 03:22:59;;;;;;;7.97;6.63;;;;;;;;;;5114833;28;20180;-68
2022/11/28 03:25:29;;;;;;;8.73;7.18;;;;;;;;;;5115076;28;20263;-68
2022/11/28 03:27:58;;;;;;;8.63;7.70;;;;;;;;;;5114009;28;20658;-68
2022/11/28 03:30:28;;;;;;;8.25;7.05;;;;;;;;;;5114409;28;20239;-69
2022/11/28 03:32:57;;;;;;;9.25;7.65;;;;;;;;;;5114325;28;20181;-68
2022/11/28 03:35:29;;;;;;;15.07;7.53;;;;;;;;;;5114245;28;20196;-68
2022/11/28 03:37:57;;;;;;;8.53;7.30;;;;;;;;;;5114163;28;20423;-69
2022/11/28 03:40:27;;;;;;;11.53;7.73;;;;;;;;;;5114199;28;20542;-68
2022/11/28 03:42:55;;;;;;;14.40;8.63;;;;;;;;;;5113835;28;20471;-69
2022/11/28 03:45:24;;;;;;;7.70;6.90;;;;;;;;;;5114166;28;20195;-68
2022/11/28 03:47:54;;;;;;;9.00;7.90;;;;;;;;;;5113770;28;20741;-68
2022/11/28 03:50:25;;;;;;;10.10;7.50;;;;;;;;;;5114407;28;20478;-68
2022/11/28 03:52:58;;;;;;;9.23;7.95;;;;;;;;;;5113444;28;20196;-68
2022/11/28 03:55:28;;;;;;;10.40;9.25;;;;;;;;;;5114727;28;20191;-68
2022/11/28 03:57:58;;;;;;;8.00;7.07;;;;;;;;;;5114076;28;20246;-68
2022/11/28 04:00:26;;;;;;;8.00;7.20;;;;;;;;;;5113937;28;20200;-68
2022/11/28 04:02:55;;;;;;;8.43;7.57;;;;;;;;;;5114636;28;20466;-68
2022/11/28 04:05:25;;;;;;;7.80;7.10;;;;;;;;;;5113983;28;20434;-68
2022/11/28 04:07:57;;;;;;;8.82;7.40;;;;;;;;;;5113590;28;20596;-68
2022/11/28 04:10:29;;;;;;;10.27;8.07;;;;;;;;;;5113797;28;20224;-68
2022/11/28 04:12:59;;;;;;;10.93;8.07;;;;;;;;;;5114165;28;20181;-67
2022/11/28 04:15:29;;;;;;;8.40;7.60;;;;;;;;;;5113827;28;20214;-67
2022/11/28 04:18:00;;;;;;;9.85;8.07;;;;;;;;;;5113385;28;20441;-68
2022/11/28 04:20:30;;;;;;;9.13;7.15;;;;;;;;;;5113970;28;20185;-68
2022/11/28 04:23:01;;;;;;;9.43;8.43;;;;;;;;;;5113394;28;20646;-67
2022/11/28 04:25:30;;;;;;;10.97;7.93;;;;;;;;;;5113825;28;20191;-67
2022/11/28 04:28:00;;;;;;;11.25;8.98;;;;;;;;;;5113368;28;20449;-67
2022/11/28 04:30:27;;;;;;;7.88;7.18;;;;;;;;;;5113603;28;20227;-67
2022/11/28 04:32:58;;;;;;;10.43;8.80;;;;;;;;;;5113665;28;20203;-67
2022/11/28 04:35:27;;;;;;;13.75;8.80;;;;;;;;;;5113289;28;20196;-67
2022/11/28 04:37:55;;;;;;;11.40;8.85;;;;;;;;;;5113661;28;20549;-68
2022/11/28 04:40:25;;;;;;;13.48;8.82;;;;;;;;;;5113478;28;20205;-68
2022/11/28 04:42:54;;;;;;;9.87;8.03;;;;;;;;;;5113566;28;20319;-68
2022/11/28 04:45:25;;;;;;;10.10;8.25;;;;;;;;;;5113515;28;20443;-68
2022/11/28 04:47:52;;;;;;;10.57;9.10;;;;;;;;;;5113646;28;20188;-68
2022/11/28 04:50:19;;;;;;;11.05;9.35;;;;;;;;;;5113048;28;20235;-68
2022/11/28 04:52:50;;;;;;;11.55;8.90;;;;;;;;;;5109951;28;20569;-68
2022/11/28 04:55:22;;;;;;;12.20;9.07;;;;;;;;;;5112600;28;20185;-68
2022/11/28 04:57:53;;;;;;;16.13;10.20;;;;;;;;;;5113104;28;20635;-68
2022/11/28 05:00:21;;;;;;;14.32;9.77;;;;;;;;;;5113078;28;20541;-69
2022/11/28 05:02:51;;;;;;;13.90;10.43;;;;;;;;;;5114048;28;20196;-69
2022/11/28 05:05:19;;;;;;;12.88;11.45;;;;;;;;;;5116566;28;20197;-68
2022/11/28 05:07:47;;;;;;;15.43;10.68;;;;;;;;;;5116719;28;20225;-69
2022/11/28 05:10:16;;;;;;;13.93;10.98;;;;;;;;;;5116810;28;20234;-69
2022/11/28 05:12:43;;;;;;;10.93;9.63;;;;;;;;;;5116461;28;20282;-69
2022/11/28 05:15:17;;;;;;;17.33;10.97;;;;;;;;;;5116944;28;20287;-69
2022/11/28 05:17:45;;;;;;;13.43;10.52;;;;;;;;;;5117072;28;20434;-70
2022/11/28 05:20:12;;;;;;;12.35;9.35;;;;;;;;;;5116726;28;20242;-70
2022/11/28 05:22:40;;;;;;;14.40;9.98;;;;;;;;;;5116291;28;20193;-69
2022/11/28 05:25:07;;;;;;;12.05;10.77;;;;;;;;;;5116234;28;20680;-70
2022/11/28 05:27:34;;;;;;;13.25;11.00;;;;;;;;;;5116920;28;20287;-70
2022/11/28 05:30:02;;;;;;;14.93;10.07;;;;;;;;;;5116406;28;20197;-71
2022/11/28 05:32:31;;;;;;;13.88;11.65;;;;;;;;;;5116398;28;20311;-71
2022/11/28 05:34:58;;;;;;;13.93;10.60;;;;;;;;;;5116325;28;20196;-70
2022/11/28 05:37:26;;;;;;;21.80;10.35;;;;;;;;;;5116534;28;20197;-71
2022/11/28 05:39:53;;;;;;;16.85;11.23;;;;;;;;;;5116407;28;20188;-71
2022/11/28 05:42:20;;;;;;;18.50;12.05;;;;;;;;;;5116073;28;20229;-70
2022/11/28 05:44:48;;;;;;;16.75;10.88;;;;;;;;;;5116320;28;20230;-71
2022/11/28 05:47:15;;;;;;;18.55;10.48;;;;;;;;;;5115768;28;20658;-70
2022/11/28 05:49:44;;;;;;;13.90;10.75;;;;;;;;;;5116513;28;20612;-70
2022/11/28 05:52:11;;;;;;;17.20;11.75;;;;;;;;;;5115987;28;20235;-70
2022/11/28 05:54:38;;;;;;;13.48;11.25;;;;;;;;;;5116270;28;20196;-70
2022/11/28 05:57:06;;;;;;;16.65;12.25;;;;;;;;;;5115916;28;20557;-70
2022/11/28 05:59:33;;;;;;;11.73;10.52;;;;;;;;;;5115585;28;20279;-70
2022/11/28 06:02:00;;;;;;;16.25;11.27;;;;;;;;;;5116188;28;20200;-70
2022/11/28 06:04:28;;;;;;;12.38;10.98;;;;;;;;;;5114243;28;20199;-70
2022/11/28 06:06:56;;;;;;;14.35;12.07;;;;;;;;;;5113985;28;20209;-70
2022/11/28 06:09:23;;;;;;;16.63;11.75;;;;;;;;;;5114588;28;20668;-70
2022/11/28 06:11:51;;;;;;;15.10;11.65;;;;;;;;;;5115229;28;20217;-71
2022/11/28 06:14:18;;;;;;;15.00;12.13;;;;;;;;;;5114899;28;20196;-71
2022/11/28 06:16:45;;;;;;;16.58;11.60;;;;;;;;;;5115442;28;20195;-70
2022/11/28 06:19:13;;;;;;;20.02;13.15;;;;;;;;;;5115819;28;20279;-70
2022/11/28 06:21:40;;;;;;;15.00;11.10;;;;;;;;;;5115696;28;20203;-70
2022/11/28 06:24:15;;;;;;;23.45;12.90;;;;;;;;;;5115423;28;20199;-70
2022/11/28 06:26:42;;;;;;;20.50;12.85;;;;;;;;;;5115622;28;20275;-70
2022/11/28 06:29:09;;;;;;;15.93;12.65;;;;;;;;;;5115750;28;20283;-70
2022/11/28 06:31:36;;;;;;;17.13;13.52;;;;;;;;;;5115126;28;20220;-70
2022/11/28 06:34:03;;;;;;;17.45;12.55;;;;;;;;;;5115150;28;20204;-70
2022/11/28 06:36:31;;;;;;;15.07;12.02;;;;;;;;;;5115451;28;20276;-70
2022/11/28 06:38:58;;;;;;;17.08;13.25;;;;;;;;;;5115440;28;20193;-70
2022/11/28 06:41:26;;;;;;;33.33;25.17;;;;;;;;;;5115074;28;20197;-70
2022/11/28 06:43:53;;;;;;;26.08;15.50;;;;;;;;;;5115275;28;20193;-70
2022/11/28 06:46:21;;;;;;;17.67;14.57;;;;;;;;;;5114884;28;20197;-70
2022/11/28 06:48:50;;;;;;;17.90;12.45;;;;;;;;;;5115160;28;20189;-70
2022/11/28 06:51:17;;;;;;;17.23;12.98;;;;;;;;;;5114624;28;20218;-70
2022/11/28 06:53:45;;;;;;;21.55;13.05;;;;;;;;;;5114835;28;20196;-72
2022/11/28 06:56:13;;;;;;;16.77;13.67;;;;;;;;;;5115015;28;20199;-71
2022/11/28 06:58:42;;;;;;;16.45;12.80;;;;;;;;;;5115227;28;20446;-71
2022/11/28 07:01:10;;;;;;;19.60;12.38;;;;;;;;;;5115215;28;20196;-71
2022/11/28 07:03:38;;;;;;;15.15;11.50;;;;;;;;;;5114586;28;20199;-71
2022/11/28 07:06:07;;;;;;;17.77;13.25;;;;;;;;;;5114441;28;20188;-71
2022/11/28 07:08:34;;;;;;;20.10;12.32;;;;;;;;;;5114855;28;20275;-71
2022/11/28 07:11:08;;;;;;;20.80;13.77;;;;;;;;;;5114759;28;20223;-71
2022/11/28 07:13:35;;;;;;;18.77;13.32;;;;;;;;;;5115119;28;20185;-71
2022/11/28 07:16:04;;;;;;;14.23;12.43;;;;;;;;;;5114237;28;20203;-70
2022/11/28 07:18:31;;;;;;;17.02;13.18;;;;;;;;;;5114239;28;20193;-70
2022/11/28 07:20:58;;;;;;;15.90;11.93;;;;;;;;;;5114352;28;20288;-71
2022/11/28 07:23:26;;;;;;;19.00;13.90;;;;;;;;;;5114600;28;20287;-71
2022/11/28 07:25:58;;;;;;;19.13;12.77;;;;;;;;;;5113264;28;21014;-70
2022/11/28 07:28:25;;;;;;;15.85;13.05;;;;;;;;;;5114755;28;20231;-70
2022/11/28 07:30:58;;;;;;;13.23;11.88;;;;;;;;;;5114249;28;20193;-71
2022/11/28 07:33:28;;;;;;;15.10;12.55;;;;;;;;;;5114600;28;20181;-70
2022/11/28 07:35:55;;;;;;;15.10;12.90;;;;;;;;;;5114311;28;20196;-70
2022/11/28 07:38:22;;;;;;;17.48;12.40;;;;;;;;;;5114858;28;20188;-70
2022/11/28 07:40:49;;;;;;;15.20;11.20;;;;;;;;;;5114094;28;20204;-70
2022/11/28 07:43:17;;;;;;;13.85;12.23;;;;;;;;;;5114470;28;20224;-71
2022/11/28 07:45:44;;;;;;;17.52;12.63;;;;;;;;;;5114932;28;20193;-70
2022/11/28 07:48:11;;;;;;;14.13;12.63;;;;;;;;;;5114661;28;20295;-71
2022/11/28 07:50:40;;;;;;;15.07;11.98;;;;;;;;;;5114703;28;20188;-71
2022/11/28 07:53:07;;;;;;;15.35;12.75;;;;;;;;;;5113965;28;20213;-71
2022/11/28 07:55:36;;;;;;;14.90;12.82;;;;;;;;;;5114073;28;20195;-70
2022/11/28 07:58:03;;;;;;;14.52;13.02;;;;;;;;;;5114010;28;20290;-71
2022/11/28 08:00:30;;;;;;;16.70;12.05;;;;;;;;;;5113628;28;20192;-71
2022/11/28 08:02:57;;;;;;;13.27;11.88;;;;;;;;;;5113555;28;20649;-70
2022/11/28 08:05:25;;;;;;;15.30;12.10;;;;;;;;;;5113984;28;20197;-70
2022/11/28 08:07:53;;;;;;;16.63;14.23;;;;;;;;;;5113865;28;20197;-70
2022/11/28 08:10:21;;;;;;;18.60;12.93;;;;;;;;;;5113494;28;20645;-70
2022/11/28 08:12:48;;;;;;;19.98;13.27;;;;;;;;;;5113879;28;20565;-70
2022/11/28 08:15:15;;;;;;;17.23;13.07;;;;;;;;;;5114027;28;20196;-71
2022/11/28 08:17:42;;;;;;;17.40;13.63;;;;;;;;;;5113729;28;20275;-71
2022/11/28 08:20:10;;;;;;;19.05;14.02;;;;;;;;;;5114507;28;20441;-71
2022/11/28 08:22:37;;;;;;;18.65;13.20;;;;;;;;;;5113651;28;20560;-70
2022/11/28 08:25:06;;;;;;;19.98;12.85;;;;;;;;;;5114437;28;20195;-70
2022/11/28 08:27:34;;;;;;;19.65;12.40;;;;;;;;;;5113590;28;20193;-70
2022/11/28 08:30:01;;;;;;;16.37;12.50;;;;;;;;;;5113712;28;20531;-71
2022/11/28 08:32:30;;;;;;;23.30;12.70;;;;;;;;;;5113630;28;20482;-70
2022/11/28 08:34:57;;;;;;;17.65;13.20;;;;;;;;;;5113850;28;20189;-71
2022/11/28 08:37:25;;;;;;;17.17;12.43;;;;;;;;;;5114877;28;20702;-70
2022/11/28 08:39:52;;;;;;;20.48;12.45;;;;;;;;;;5118030;28;20198;-71
2022/11/28 08:42:21;;;;;;;18.57;12.87;;;;;;;;;;5117793;28;20704;-70
2022/11/28 08:44:48;;;;;;;22.43;11.83;;;;;;;;;;5117922;28;20445;-70
2022/11/28 08:47:16;;;;;;;18.38;12.25;;;;;;;;;;5117610;28;20445;-70
2022/11/28 08:49:43;;;;;;;15.90;12.15;;;;;;;;;;5117592;28;20192;-70
2022/11/28 08:52:10;;;;;;;18.60;14.18;;;;;;;;;;5117408;28;20389;-71
2022/11/28 08:54:37;;;;;;;15.68;11.88;;;;;;;;;;5117322;28;20279;-70
2022/11/28 08:57:05;;;;;;;14.70;12.67;;;;;;;;;;5117361;28;20562;-71
2022/11/28 08:59:33;;;;;;;22.95;12.63;;;;;;;;;;5117377;28;20442;-71
2022/11/28 09:02:00;;;;;;;21.03;13.20;;;;;;;;;;5117519;28;20562;-70
2022/11/28 09:04:28;;;;;;;16.30;12.35;;;;;;;;;;5116784;28;20438;-71
2022/11/28 09:06:55;;;;;;;18.10;13.63;;;;;;;;;;5117069;28;20709;-70
2022/11/28 09:09:22;;;;;;;14.20;11.77;;;;;;;;;;5117650;28;20450;-71
2022/11/28 09:11:50;;;;;;;16.87;11.67;;;;;;;;;;5117335;28;20563;-71
2022/11/28 09:14:17;;;;;;;15.43;11.45;;;;;;;;;;5117138;28;20439;-71
2022/11/28 09:16:45;;;;;;;15.98;11.30;;;;;;;;;;5117304;28;20217;-71
2022/11/28 09:19:12;;;;;;;13.20;10.60;;;;;;;;;;5117022;28;20193;-71
2022/11/28 09:21:40;;;;;;;15.85;11.43;;;;;;;;;;5116964;28;20452;-71
2022/11/28 09:24:08;;;;;;;13.43;11.20;;;;;;;;;;5116995;28;20197;-71
2022/11/28 09:26:36;;;;;;;17.53;11.37;;;;;;;;;;5116540;28;20192;-71
2022/11/28 09:29:03;;;;;;;16.73;11.70;;;;;;;;;;5116863;28;20801;-71
2022/11/28 09:31:30;;;;;;;15.65;11.45;;;;;;;;;;5116655;28;20531;-71
2022/11/28 09:33:58;;;;;;;20.02;13.43;;;;;;;;;;5116562;28;20283;-71
2022/11/28 09:36:27;;;;;;;13.50;11.03;;;;;;;;;;5116674;28;20284;-71
2022/11/28 09:38:54;;;;;;;15.93;11.82;;;;;;;;;;5116866;28;20446;-71
2022/11/28 09:41:30;;;;;;;13.80;9.95;;;;;;;;;;5116724;28;20196;-72
2022/11/28 09:43:58;;;;;;;15.73;11.30;;;;;;;;;;5116200;28;20682;-71
2022/11/28 09:46:27;;;;;;;12.27;10.67;;;;;;;;;;5116562;28;20443;-70
2022/11/28 09:48:56;;;;;;;12.18;10.68;;;;;;;;;;5115346;28;20445;-71
2022/11/28 09:51:28;;;;;;;13.00;10.30;;;;;;;;;;5116304;28;20201;-71
2022/11/28 09:54:01;;;;;;;12.27;9.80;;;;;;;;;;5116532;28;20427;-70
2022/11/28 09:56:28;;;;;;;15.03;11.13;;;;;;;;;;5116902;28;20213;-71
2022/11/28 09:58:57;;;;;;;13.47;10.83;;;;;;;;;;5116135;28;20819;-72
2022/11/28 10:01:28;;;;;;;15.33;11.53;;;;;;;;;;5116204;28;20437;-71
2022/11/28 10:03:59;;;;;;;14.97;11.27;;;;;;;;;;5115840;28;20427;-70
2022/11/28 10:06:30;;;;;;;15.50;11.73;;;;;;;;;;5116229;28;20423;-71
2022/11/28 10:09:09;;;;;;;12.10;10.90;;;;;;;;;;5115771;28;20438;-71
2022/11/28 10:11:43;;;;;;;12.27;11.00;;;;;;;;;;5115907;28;20534;-71
2022/11/28 10:14:19;;;;;;;13.17;10.97;;;;;;;;;;5115643;28;20468;-70
2022/11/28 10:16:48;;;;;;;17.93;10.80;;;;;;;;;;5115808;28;21002;-70
2022/11/28 10:19:17;;;;;;;13.37;10.60;;;;;;;;;;5115669;28;20938;-71
2022/11/28 10:21:48;;;;;;;10.93;9.60;;;;;;;;;;5115533;28;20922;-71
2022/11/28 10:24:17;;;;;;;11.43;9.77;;;;;;;;;;5115732;28;20435;-71
2022/11/28 10:26:46;;;;;;;13.87;9.93;;;;;;;;;;5115787;28;20465;-70
2022/11/28 10:29:20;;;;;;;12.33;10.40;;;;;;;;;;5115610;28;20439;-72
2022/11/28 10:31:47;;;;;;;12.00;10.40;;;;;;;;;;5116186;28;20450;-70
2022/11/28 10:34:17;;;;;;;13.33;11.00;;;;;;;;;;5115498;28;20450;-70
2022/11/28 10:36:52;;;;;;;14.17;11.37;;;;;;;;;;5115589;28;20798;-70
2022/11/28 10:39:19;;;;;;;14.00;11.50;;;;;;;;;;5115880;28;20443;-70
2022/11/28 10:42:10;;;;;;;15.23;10.40;;;;;;;;;;5115526;28;20458;-70
2022/11/28 10:44:40;;;;;;;14.47;12.10;;;;;;;;;;5115263;28;20530;-70
2022/11/28 10:47:10;;;;;;;13.57;10.73;;;;;;;;;;5115397;28;20435;-70
2022/11/28 10:49:46;;;;;;;11.77;10.27;;;;;;;;;;5115125;28;20477;-70
2022/11/28 10:52:19;;;;;;;11.97;9.80;;;;;;;;;;5115256;28;20467;-71
2022/11/28 10:54:54;;;;;;;12.30;11.00;;;;;;;;;;5115220;28;20527;-71
2022/11/28 10:57:23;;;;;;;16.70;12.33;;;;;;;;;;5115241;28;20779;-70
2022/11/28 10:59:57;;;;;;;11.83;9.13;;;;;;;;;;5114880;28;20786;-70
2022/11/28 11:02:31;;;;;;;11.17;10.03;;;;;;;;;;5115070;28;20435;-70
2022/11/28 11:04:58;;;;;;;15.13;11.77;;;;;;;;;;5115179;28;20851;-70
2022/11/28 11:07:28;;;;;;;10.80;9.70;;;;;;;;;;5114765;28;20529;-70
2022/11/28 11:09:56;;;;;;;13.53;11.50;;;;;;;;;;5114960;28;20437;-70
2022/11/28 11:12:26;;;;;;;11.30;10.10;;;;;;;;;;5114875;28;20479;-70
2022/11/28 11:14:53;;;;;;;11.33;10.20;;;;;;;;;;5114493;28;20940;-70
2022/11/28 11:17:28;;;;;;;11.83;10.70;;;;;;;;;;5115042;28;20477;-70
2022/11/28 11:19:55;;;;;;;17.00;11.47;;;;;;;;;;5114610;28;20461;-70
2022/11/28 11:22:25;;;;;;;12.70;10.73;;;;;;;;;;5114658;28;20446;-70
2022/11/28 11:25:08;;;;;;;15.27;11.23;;;;;;;;;;5114701;28;20423;-70
2022/11/28 11:27:37;;;;;;;14.27;11.27;;;;;;;;;;5114336;28;20439;-70
2022/11/28 11:30:16;;;;;;;11.50;9.43;;;;;;;;;;5114434;28;20434;-70
2022/11/28 11:32:47;;;;;;;15.00;12.00;;;;;;;;;;5114981;28;20501;-71
2022/11/28 11:35:18;;;;;;;12.70;11.20;;;;;;;;;;5114623;28;20466;-70
2022/11/28 11:37:45;;;;;;;13.40;10.97;;;;;;;;;;5114691;28;20439;-71
2022/11/28 11:40:22;;;;;;;12.73;11.33;;;;;;;;;;5113893;28;20448;-70
2022/11/28 11:42:52;;;;;;;12.50;10.50;;;;;;;;;;5113842;28;20491;-70
2022/11/28 11:45:30;;;;;;;22.83;12.00;;;;;;;;;;5114350;28;20442;-70
2022/11/28 11:47:57;;;;;;;12.33;11.10;;;;;;;;;;5114116;28;20431;-70
2022/11/28 11:50:25;;;;;;;13.30;10.77;;;;;;;;;;5114462;28;20436;-69
2022/11/28 11:53:07;;;;;;;12.83;11.40;;;;;;;;;;5113785;28;20468;-69
2022/11/28 11:55:39;;;;;;;15.90;11.57;;;;;;;;;;5113913;28;20441;-69
2022/11/28 11:58:07;;;;;;;17.73;13.33;;;;;;;;;;5113806;28;20423;-70
2022/11/28 12:00:37;;;;;;;18.70;11.10;;;;;;;;;;5114053;28;20874;-68
2022/11/28 12:03:07;;;;;;;17.07;12.37;;;;;;;;;;5113702;28;20955;-70
2022/11/28 12:05:36;;;;;;;20.23;14.13;;;;;;;;;;5113558;28;20963;-70
2022/11/28 12:08:06;;;;;;;20.10;14.50;;;;;;;;;;5113947;28;20787;-70
2022/11/28 12:10:36;;;;;;;25.97;15.30;;;;;;;;;;5114009;28;20457;-70
2022/11/28 12:13:05;;;;;;;15.13;11.63;;;;;;;;;;5118331;28;20515;-70
2022/11/28 12:15:39;;;;;;;17.60;12.20;;;;;;;;;;5120814;28;20538;-70
2022/11/28 12:18:14;;;;;;;15.30;12.43;;;;;;;;;;5120742;28;20433;-70
2022/11/28 12:20:45;;;;;;;13.27;11.87;;;;;;;;;;5120230;28;21008;-70
2022/11/28 12:23:20;;;;;;;13.07;10.93;;;;;;;;;;5121235;28;20427;-70
2022/11/28 12:25:49;;;;;;;24.47;14.70;;;;;;;;;;5120570;28;20461;-70
2022/11/28 12:28:25;;;;;;;15.60;13.30;;;;;;;;;;5120583;28;20439;-70
2022/11/28 12:30:57;;;;;;;13.67;11.43;;;;;;;;;;5120666;28;20430;-69
2022/11/28 12:33:31;;;;;;;14.80;10.60;;;;;;;;;;5121049;27;20463;-69
2022/11/28 12:36:08;;;;;;;12.73;10.90;;;;;;;;;;5120554;28;20430;-70
2022/11/28 12:38:40;;;;;;;15.57;10.87;;;;;;;;;;5120516;28;20450;-70
2022/11/28 12:41:20;;;;;;;12.77;11.37;;;;;;;;;;5120433;28;20447;-70
2022/11/28 12:43:55;;;;;;;13.03;11.30;;;;;;;;;;5119990;28;20471;-69
2022/11/28 12:46:27;;;;;;;11.97;10.70;;;;;;;;;;5120615;28;20483;-70
2022/11/28 12:49:00;;;;;;;16.13;12.57;;;;;;;;;;5120476;28;20435;-70
2022/11/28 12:51:32;;;;;;;12.20;10.90;;;;;;;;;;5120540;28;20423;-69
2022/11/28 12:54:07;;;;;;;14.30;11.90;;;;;;;;;;5120092;28;21031;-69
2022/11/28 12:56:39;;;;;;;16.10;11.50;;;;;;;;;;5120399;28;20426;-70
2022/11/28 12:59:13;;;;;;;12.80;11.43;;;;;;;;;;5120619;28;20432;-69
2022/11/28 13:01:48;;;;;;;13.07;11.10;;;;;;;;;;5120398;28;20434;-70
2022/11/28 13:04:21;;;;;;;13.43;11.40;;;;;;;;;;5120489;28;20532;-69
2022/11/28 13:06:53;;;;;;;17.50;14.27;;;;;;;;;;5120483;28;20430;-69
2022/11/28 13:09:26;;;;;;;14.63;11.33;;;;;;;;;;5120303;28;20435;-69
2022/11/28 13:11:59;;;;;;;15.07;12.20;;;;;;;;;;5120483;28;20538;-69
2022/11/28 13:14:33;;;;;;;18.50;13.20;;;;;;;;;;5120442;28;20822;-70
2022/11/28 13:17:09;;;;;;;17.70;12.90;;;;;;;;;;5120329;28;20443;-69
2022/11/28 13:19:40;;;;;;;18.53;12.30;;;;;;;;;;5120324;28;20442;-69
2022/11/28 13:22:12;;;;;;;22.03;14.23;;;;;;;;;;5120191;28;20474;-68
2022/11/28 13:24:41;;;;;;;16.93;12.67;;;;;;;;;;5118356;28;20439;-69
2022/11/28 13:27:13;;;;;;;13.97;11.00;;;;;;;;;;5116784;28;20449;-69
2022/11/28 13:29:46;;;;;;;17.53;12.60;;;;;;;;;;5116951;28;20813;-69
2022/11/28 13:32:20;;;;;;;18.57;12.20;;;;;;;;;;5116595;28;20510;-69
2022/11/28 13:34:47;;;;;;;11.97;10.70;;;;;;;;;;5116513;28;20500;-69
2022/11/28 13:37:16;;;;;;;15.63;11.20;;;;;;;;;;5116602;28;20545;-69
2022/11/28 13:39:46;;;;;;;15.60;12.20;;;;;;;;;;5116669;28;20799;-69
2022/11/28 13:42:30;;;;;;;13.07;10.90;;;;;;;;;;5116081;28;20473;-68
2022/11/28 13:45:01;;;;;;;18.43;13.97;;;;;;;;;;5116342;28;20432;-69
2022/11/28 13:47:30;;;;;;;16.90;12.80;;;;;;;;;;5116327;28;20427;-68
2022/11/28 13:50:27;;;;;;;21.87;14.70;;;;;;;;;;5116559;28;20447;-69
2022/11/28 13:52:58;;;;;;;23.33;15.00;;;;;;;;;;5053217;28;20833;-69
2022/11/28 13:55:39;;;;;;;17.27;13.33;;;;;;;;;;5103831;28;20451;-69
2022/11/28 13:58:17;;;;;;;16.60;12.60;;;;;;;;;;5116318;28;20517;-71
2022/11/28 14:00:58;;;;;;;16.00;13.13;;;;;;;;;;5116166;28;20437;-68
2022/11/28 14:03:26;;;;;;;19.40;12.83;;;;;;;;;;5116230;28;20432;-68
2022/11/28 14:05:55;;;;;;;14.20;12.33;;;;;;;;;;5115670;28;20439;-68
2022/11/28 14:08:27;;;;;;;19.50;14.70;;;;;;;;;;5116390;28;20532;-68
2022/11/28 14:11:01;;;;;;;19.50;11.63;;;;;;;;;;5115700;28;20440;-67
2022/11/28 14:13:44;;;;;;;18.10;13.00;;;;;;;;;;5110137;28;20470;-69
2022/11/28 14:16:18;;;;;;;22.00;14.07;;;;;;;;;;5095134;28;20796;-69
2022/11/28 14:18:59;;;;;;;21.90;14.07;;;;;;;;;;5095133;28;20427;-69
2022/11/28 14:21:33;;;;;;;23.80;14.83;;;;;;;;;;5103908;28;20431;-69
2022/11/28 14:24:04;;;;;;;29.60;16.80;;;;;;;;;;5114380;28;20942;-69
2022/11/28 14:26:33;;;;;;;23.50;15.83;;;;;;;;;;5115721;28;20427;-69
2022/11/28 14:29:01;;;;;;;29.33;15.10;;;;;;;;;;5115483;28;20443;-69
2022/11/28 14:31:30;;;;;;;28.33;16.00;;;;;;;;;;5115431;28;20493;-69
2022/11/28 14:33:58;;;;;;;19.50;15.13;;;;;;;;;;5115123;28;20976;-69
2022/11/28 14:36:28;;;;;;;35.60;15.93;;;;;;;;;;5114590;28;20973;-69
2022/11/28 14:39:10;;;;;;;20.57;13.80;;;;;;;;;;5115258;28;20962;-69
2022/11/28 14:42:05;;;;;;;22.60;14.57;;;;;;;;;;5113455;28;20459;-69